Telegraph Creek, Canada
Current Conditions -  °F | °C
As of 10:00 AM on Thursday 27 Nov 2014 (Local Time) from CYDL Reporting Station
Light Snow Light Snow  
Wind Chill: -6°   Ceiling: 6500
Heat Index:   Visibility: 9mi
Dew Point:   Wind: 8mph
Humidity: 72%   Direction: 20°NNE
Pressure: 30.07"   Gusts: 21mph
Location:  57.9°N, 131.15°W
Report Text: CYDL 271800Z AUTO 02007G18KT 300V040 9SM -SN OVC065 M14/M18 A3007 RMK SLP233
Loading
Personal Weather Stations






























Interactive Weather Map New forecast layout! Learn more

10-Day Weather Forecast

Advertisements
Track Severe Weather on mobile